createdAt,value
2023-10-21T00:01:58.913Z,8.90
2023-10-21T00:04:45.172Z,8.10
2023-10-21T00:07:32.353Z,8.43
2023-10-21T00:10:18.630Z,7.35
2023-10-21T00:13:05.224Z,7.60
2023-10-21T00:15:50.839Z,7.85
2023-10-21T00:18:36.815Z,7.53
2023-10-21T00:21:23.064Z,9.70
2023-10-21T00:24:09.338Z,11.73
2023-10-21T00:26:55.389Z,11.13
2023-10-21T00:29:41.266Z,11.63
2023-10-21T00:32:26.781Z,9.05
2023-10-21T00:35:13.213Z,9.70
2023-10-21T00:37:59.172Z,9.38
2023-10-21T00:40:56.910Z,11.50
2023-10-21T00:43:43.890Z,11.20
2023-10-21T00:46:29.743Z,9.60
2023-10-21T00:49:15.520Z,10.15
2023-10-21T00:52:02.114Z,10.27
2023-10-21T00:54:47.706Z,9.18
2023-10-21T00:57:33.701Z,8.30
2023-10-21T01:00:20.128Z,11.35
2023-10-21T01:03:06.449Z,9.90
2023-10-21T01:05:53.935Z,11.00
2023-10-21T01:08:49.591Z,9.30
2023-10-21T01:11:35.848Z,8.20
2023-10-21T01:14:22.008Z,9.57
2023-10-21T01:17:09.580Z,10.80
2023-10-21T01:19:59.195Z,17.27
2023-10-21T01:22:45.609Z,10.93
2023-10-21T01:25:33.596Z,8.60
2023-10-21T01:28:19.143Z,10.68
2023-10-21T01:31:05.670Z,10.52
2023-10-21T01:33:51.151Z,12.10
2023-10-21T01:36:37.503Z,12.98
2023-10-21T01:39:23.057Z,14.15
2023-10-21T01:42:09.597Z,12.63
2023-10-21T01:44:56.771Z,10.88
2023-10-21T01:47:43.008Z,10.20
2023-10-21T01:50:29.525Z,12.07
2023-10-21T01:53:15.498Z,13.02
2023-10-21T01:56:04.898Z,10.48
2023-10-21T01:58:50.736Z,12.82
2023-10-21T02:01:36.475Z,12.93
2023-10-21T02:04:22.686Z,18.58
2023-10-21T02:07:08.942Z,15.50
2023-10-21T02:09:55.243Z,14.75
2023-10-21T02:12:41.329Z,11.70
2023-10-21T02:15:27.145Z,12.50
2023-10-21T02:18:12.788Z,11.40
2023-10-21T02:20:59.647Z,12.05
2023-10-21T02:23:45.780Z,10.15
2023-10-21T02:26:31.586Z,11.85
2023-10-21T02:29:17.366Z,13.32
2023-10-21T02:32:05.156Z,10.13
2023-10-21T02:34:54.986Z,10.38
2023-10-21T02:37:41.895Z,9.10
2023-10-21T02:40:27.713Z,16.83
2023-10-21T02:43:14.007Z,9.55
2023-10-21T02:46:13.680Z,10.73
2023-10-21T02:49:00.049Z,12.10
2023-10-21T02:51:45.587Z,11.18
2023-10-21T02:54:32.295Z,15.40
2023-10-21T02:57:18.246Z,11.93
2023-10-21T03:00:07.162Z,10.88
2023-10-21T03:02:53.311Z,12.75
2023-10-21T03:05:40.684Z,11.32
2023-10-21T03:08:26.177Z,13.60
2023-10-21T03:11:12.373Z,10.02
2023-10-21T03:13:59.063Z,9.65
2023-10-21T03:16:45.724Z,13.68
2023-10-21T03:19:31.354Z,13.23
2023-10-21T03:22:17.850Z,9.68
2023-10-21T03:25:03.759Z,9.73
2023-10-21T03:27:50.042Z,12.90
2023-10-21T03:30:35.766Z,10.85
2023-10-21T03:33:21.674Z,11.00
2023-10-21T03:36:08.599Z,8.10
2023-10-21T03:38:54.755Z,8.82
2023-10-21T03:41:41.190Z,11.52
2023-10-21T03:44:27.357Z,8.27
2023-10-21T03:47:13.141Z,12.10
2023-10-21T03:49:59.164Z,9.50
2023-10-21T03:52:44.655Z,12.30
2023-10-21T03:55:30.781Z,12.73
2023-10-21T03:58:16.529Z,13.48
2023-10-21T04:01:02.438Z,12.45
2023-10-21T04:03:48.449Z,7.53
2023-10-21T04:06:34.439Z,8.80
2023-10-21T04:09:20.146Z,11.57
2023-10-21T04:12:06.437Z,15.15
2023-10-21T04:14:52.356Z,13.27
2023-10-21T04:17:39.601Z,8.52
2023-10-21T04:20:25.249Z,11.43
2023-10-21T04:23:11.039Z,21.45
2023-10-21T04:25:56.717Z,31.48
2023-10-21T04:28:43.449Z,14.80
2023-10-21T04:31:35.191Z,16.27
2023-10-21T04:34:22.624Z,14.85
2023-10-21T04:37:08.865Z,11.02
2023-10-21T04:39:55.187Z,14.95
2023-10-21T04:42:40.749Z,11.05
2023-10-21T04:45:27.012Z,15.20
2023-10-21T04:48:12.950Z,13.68
2023-10-21T04:50:59.133Z,13.57
2023-10-21T04:53:44.690Z,14.45
2023-10-21T04:56:30.536Z,18.88
2023-10-21T04:59:16.089Z,15.82
2023-10-21T05:02:02.317Z,17.23
2023-10-21T05:04:49.608Z,37.55
2023-10-21T05:07:35.634Z,24.15
2023-10-21T05:10:22.550Z,16.10
2023-10-21T05:13:09.553Z,15.25
2023-10-21T05:15:55.787Z,15.77
2023-10-21T05:18:41.864Z,15.43
2023-10-21T05:21:27.929Z,11.07
2023-10-21T05:24:13.978Z,14.85
2023-10-21T05:27:00.287Z,14.32
2023-10-21T05:29:46.416Z,13.25
2023-10-21T05:32:32.110Z,21.83
2023-10-21T05:35:18.730Z,10.38
2023-10-21T05:38:04.484Z,17.35
2023-10-21T05:40:50.567Z,13.65
2023-10-21T05:43:37.641Z,15.70
2023-10-21T05:46:23.836Z,13.65
2023-10-21T05:49:09.869Z,12.27
2023-10-21T05:51:57.227Z,17.02
2023-10-21T05:54:43.463Z,14.57
2023-10-21T05:57:29.952Z,18.23
2023-10-21T06:00:16.381Z,34.58
2023-10-21T06:03:03.398Z,14.88
2023-10-21T06:05:50.096Z,15.70
2023-10-21T06:08:36.045Z,17.23
2023-10-21T06:11:21.697Z,16.27
2023-10-21T06:14:07.971Z,13.73
2023-10-21T06:16:53.674Z,13.45
2023-10-21T06:19:40.528Z,12.52
2023-10-21T06:22:27.478Z,10.60
2023-10-21T06:25:17.330Z,11.90
2023-10-21T06:28:03.193Z,13.95
2023-10-21T06:30:49.355Z,18.42
2023-10-21T06:33:36.778Z,25.48
2023-10-21T06:36:23.726Z,31.20
2023-10-21T06:39:09.609Z,39.03
2023-10-21T06:41:58.583Z,14.90
2023-10-21T06:44:44.932Z,15.95
2023-10-21T06:47:31.689Z,62.30
2023-10-21T06:50:20.306Z,99.63
2023-10-21T06:53:08.046Z,98.55
2023-10-21T06:55:55.709Z,37.00
2023-10-21T06:58:42.609Z,27.13
2023-10-21T07:01:28.613Z,17.80
2023-10-21T07:04:16.063Z,32.08
2023-10-21T07:07:02.754Z,16.13
2023-10-21T07:09:48.919Z,23.15
2023-10-21T07:12:39.955Z,21.17
2023-10-21T07:15:32.546Z,15.40
2023-10-21T07:18:19.316Z,16.73
2023-10-21T07:21:06.352Z,14.48
2023-10-21T07:23:52.422Z,14.60
2023-10-21T07:26:41.283Z,13.82
2023-10-21T07:29:26.906Z,17.88
2023-10-21T07:32:13.075Z,18.13
2023-10-21T07:34:58.958Z,13.45
2023-10-21T07:37:48.207Z,14.43
2023-10-21T07:40:33.775Z,14.57
2023-10-21T07:43:19.646Z,15.00
2023-10-21T07:46:06.065Z,16.30
2023-10-21T07:48:53.187Z,15.85
2023-10-21T07:51:39.342Z,15.05
2023-10-21T07:54:25.437Z,15.40
2023-10-21T07:57:11.091Z,16.00
2023-10-21T07:59:57.779Z,23.17
2023-10-21T08:02:44.477Z,22.88
2023-10-21T08:05:31.121Z,25.05
2023-10-21T08:08:17.016Z,25.00
2023-10-21T08:11:04.111Z,28.33
2023-10-21T08:13:52.012Z,34.35
2023-10-21T08:16:38.556Z,25.25
2023-10-21T08:19:25.992Z,45.65
2023-10-21T08:22:12.244Z,27.98
2023-10-21T08:24:59.244Z,25.67
2023-10-21T08:27:45.953Z,33.67
2023-10-21T08:30:32.114Z,47.28
2023-10-21T08:33:18.648Z,47.72
2023-10-21T08:36:05.523Z,40.92
2023-10-21T08:38:51.806Z,39.03
2023-10-21T08:41:41.357Z,38.45
2023-10-21T08:44:27.810Z,47.28
2023-10-21T08:47:15.763Z,57.50
2023-10-21T08:50:05.183Z,28.90
2023-10-21T08:52:51.830Z,34.10
2023-10-21T08:55:40.341Z,30.35
2023-10-21T08:58:32.391Z,25.90
2023-10-21T09:01:18.811Z,33.00
2023-10-21T09:04:05.590Z,24.50
2023-10-21T09:06:59.314Z,25.10
2023-10-21T09:09:45.071Z,28.08
2023-10-21T09:12:31.909Z,39.65
2023-10-21T09:15:18.105Z,27.65
2023-10-21T09:18:12.155Z,44.20
2023-10-21T09:20:58.358Z,29.83
2023-10-21T09:23:52.616Z,33.00
2023-10-21T09:26:40.384Z,23.08
2023-10-21T09:29:27.904Z,33.47
2023-10-21T09:32:15.098Z,27.85
2023-10-21T09:35:39.775Z,26.13
2023-10-21T09:38:26.112Z,25.00
2023-10-21T09:41:15.032Z,91.38
2023-10-21T09:44:04.114Z,48.47
2023-10-21T09:46:50.677Z,39.03
2023-10-21T09:49:40.710Z,35.38
2023-10-21T09:52:31.668Z,48.78
2023-10-21T09:55:19.334Z,63.65
2023-10-21T09:58:06.476Z,48.72
2023-10-21T10:00:52.510Z,60.47
2023-10-21T10:03:40.591Z,52.35
2023-10-21T10:06:30.534Z,35.08
2023-10-21T10:09:23.401Z,46.28
2023-10-21T10:12:25.380Z,98.85
2023-10-21T10:15:38.949Z,96.57
2023-10-21T10:18:26.673Z,99.45
2023-10-21T10:21:16.331Z,65.20
2023-10-21T10:24:05.217Z,34.78
2023-10-21T10:26:53.134Z,69.90
2023-10-21T10:29:39.225Z,77.07
2023-10-21T10:32:30.837Z,54.28
2023-10-21T10:35:34.078Z,53.78
2023-10-21T10:38:33.689Z,102.15
2023-10-21T10:41:20.191Z,60.03
2023-10-21T10:44:07.385Z,60.03
2023-10-21T10:46:54.993Z,53.28
2023-10-21T10:50:00.960Z,38.63
2023-10-21T10:52:47.506Z,55.40
2023-10-21T10:55:33.950Z,49.80
2023-10-21T10:58:20.121Z,47.42
2023-10-21T11:01:09.315Z,42.70
2023-10-21T11:04:01.983Z,40.72
2023-10-21T11:06:49.097Z,41.00
2023-10-21T11:09:35.274Z,45.22
2023-10-21T11:12:21.812Z,39.75
2023-10-21T11:15:08.216Z,37.28
2023-10-21T11:17:55.132Z,52.65
2023-10-21T11:20:48.372Z,58.05
2023-10-21T11:23:38.789Z,45.17
2023-10-21T11:26:24.305Z,47.90
2023-10-21T11:29:18.931Z,46.00
2023-10-21T11:32:05.175Z,53.53
2023-10-21T11:34:51.127Z,46.10
2023-10-21T11:37:43.738Z,76.53
2023-10-21T11:40:31.357Z,68.30
2023-10-21T11:43:18.908Z,54.85
2023-10-21T11:46:06.998Z,54.13
2023-10-21T11:48:52.854Z,63.40
2023-10-21T11:51:39.368Z,56.53
2023-10-21T11:54:34.869Z,51.63
2023-10-21T11:57:41.309Z,49.30
2023-10-21T12:00:47.997Z,53.47
2023-10-21T12:03:53.413Z,47.92
2023-10-21T12:07:11.574Z,52.03
2023-10-21T12:10:10.086Z,53.25
2023-10-21T12:13:11.057Z,45.97
2023-10-21T12:16:16.465Z,48.40
2023-10-21T12:19:20.841Z,55.60
2023-10-21T12:22:26.713Z,50.10
2023-10-21T12:25:36.637Z,47.05
2023-10-21T12:28:34.822Z,45.67
2023-10-21T12:31:27.104Z,43.72
2023-10-21T12:34:31.839Z,44.45
2023-10-21T12:37:21.675Z,40.45
2023-10-21T12:40:34.541Z,39.85
2023-10-21T12:43:25.783Z,41.33
2023-10-21T12:46:23.606Z,40.15
2023-10-21T12:49:26.008Z,37.95
2023-10-21T12:52:13.796Z,37.08
2023-10-21T12:55:00.892Z,36.28
2023-10-21T12:57:51.493Z,48.17
2023-10-21T13:00:38.168Z,36.13
2023-10-21T13:03:24.988Z,37.85
2023-10-21T13:06:11.294Z,38.20
2023-10-21T13:08:58.345Z,36.67
2023-10-21T13:11:43.902Z,37.17
2023-10-21T13:14:29.896Z,36.08
2023-10-21T13:17:15.576Z,37.72
2023-10-21T13:20:01.380Z,35.75
2023-10-21T13:22:49.426Z,35.63
2023-10-21T13:25:37.539Z,35.55
2023-10-21T13:28:23.374Z,53.80
2023-10-21T13:31:10.549Z,46.08
2023-10-21T13:33:56.717Z,47.40
2023-10-21T13:36:43.016Z,40.13
2023-10-21T13:39:32.070Z,43.58
2023-10-21T13:42:18.943Z,38.75
2023-10-21T13:45:06.953Z,43.15
2023-10-21T13:47:57.135Z,42.75
2023-10-21T13:50:44.423Z,51.87
2023-10-21T13:53:33.753Z,54.67
2023-10-21T13:56:19.889Z,41.50
2023-10-21T13:59:17.071Z,51.50
2023-10-21T14:02:02.877Z,48.38
2023-10-21T14:04:49.345Z,44.90
2023-10-21T14:07:35.607Z,45.13
2023-10-21T14:10:21.949Z,52.30
2023-10-21T14:13:09.212Z,51.50
2023-10-21T14:15:59.213Z,54.08
2023-10-21T14:18:46.036Z,47.22
2023-10-21T14:21:34.347Z,64.20
2023-10-21T14:24:20.659Z,50.90
2023-10-21T14:27:09.427Z,49.50
2023-10-21T14:30:11.376Z,47.97
2023-10-21T14:32:57.545Z,58.75
2023-10-21T14:35:45.444Z,69.75
2023-10-21T14:38:31.764Z,69.32
2023-10-21T14:41:17.827Z,57.30
2023-10-21T14:44:04.409Z,68.45
2023-10-21T14:46:50.420Z,86.90
2023-10-21T14:49:37.202Z,113.13
2023-10-21T14:52:24.184Z,99.50
2023-10-21T14:55:10.460Z,83.13
2023-10-21T14:57:56.193Z,92.18
2023-10-21T15:00:43.944Z,102.32
2023-10-21T15:03:30.462Z,134.45
2023-10-21T15:06:16.667Z,96.55
2023-10-21T15:09:02.823Z,86.40
2023-10-21T15:11:49.212Z,83.75
2023-10-21T15:14:45.782Z,102.82
2023-10-21T15:17:42.341Z,90.85
2023-10-21T15:20:29.956Z,71.88
2023-10-21T15:23:15.978Z,61.30
2023-10-21T15:26:02.105Z,66.53
2023-10-21T15:28:48.551Z,68.45
2023-10-21T15:31:36.477Z,77.60
2023-10-21T15:34:25.046Z,82.07
2023-10-21T15:37:11.646Z,79.05
2023-10-21T15:39:57.965Z,145.30
2023-10-21T15:42:45.069Z,101.65
2023-10-21T15:45:31.588Z,76.78
2023-10-21T15:48:17.447Z,104.60
2023-10-21T15:51:15.016Z,89.15
2023-10-21T15:54:01.282Z,76.40
2023-10-21T15:56:50.352Z,74.72
2023-10-21T15:59:36.373Z,95.45
2023-10-21T16:02:23.379Z,85.40
2023-10-21T16:05:10.034Z,104.22
2023-10-21T16:07:58.207Z,108.68
2023-10-21T16:10:45.139Z,97.40
2023-10-21T16:13:31.658Z,93.65
2023-10-21T16:16:22.960Z,129.93
2023-10-21T16:19:09.690Z,176.55
2023-10-21T16:21:55.558Z,118.05
2023-10-21T16:24:41.514Z,105.72
2023-10-21T16:27:27.689Z,148.57
2023-10-21T16:30:14.104Z,124.72
2023-10-21T16:33:00.284Z,197.73
2023-10-21T16:35:47.705Z,149.68
2023-10-21T16:38:33.607Z,183.68
2023-10-21T16:41:20.062Z,145.02
2023-10-21T16:44:05.796Z,125.28
2023-10-21T16:46:52.187Z,129.80
2023-10-21T16:49:38.584Z,147.10
2023-10-21T16:52:27.116Z,127.60
2023-10-21T16:55:13.384Z,143.57
2023-10-21T16:57:59.660Z,116.50
2023-10-21T17:00:45.426Z,137.60
2023-10-21T17:03:32.042Z,230.27
2023-10-21T17:06:18.232Z,334.38
2023-10-21T17:09:07.279Z,323.42
2023-10-21T17:11:53.079Z,201.63
2023-10-21T17:14:39.467Z,189.98
2023-10-21T17:17:26.842Z,179.20
2023-10-21T17:20:13.320Z,171.65
2023-10-21T17:22:59.678Z,170.85
2023-10-21T17:25:47.376Z,183.57
2023-10-21T17:28:33.980Z,190.82
2023-10-21T17:31:20.275Z,181.75
2023-10-21T17:34:06.473Z,175.50
2023-10-21T17:36:52.672Z,184.73
2023-10-21T17:39:38.847Z,169.15
2023-10-21T17:42:25.213Z,260.98
2023-10-21T17:45:11.495Z,176.68
2023-10-21T17:47:58.318Z,260.83
2023-10-21T17:50:44.627Z,199.15
2023-10-21T17:53:30.406Z,231.95
2023-10-21T17:56:16.424Z,237.65
2023-10-21T17:59:02.501Z,163.63
2023-10-21T18:01:48.736Z,175.85
2023-10-21T18:04:35.311Z,173.48
2023-10-21T18:07:23.774Z,167.73
2023-10-21T18:10:10.444Z,199.85
2023-10-21T18:12:56.860Z,192.93
2023-10-21T18:15:42.932Z,214.15
2023-10-21T18:18:29.367Z,238.05
2023-10-21T18:21:16.227Z,203.65
2023-10-21T18:24:02.958Z,213.52
2023-10-21T18:26:50.578Z,226.02
2023-10-21T18:29:36.852Z,197.50
2023-10-21T18:32:23.778Z,183.95
2023-10-21T18:35:09.447Z,171.73
2023-10-21T18:38:00.359Z,166.32
2023-10-21T18:40:47.660Z,153.90
2023-10-21T18:43:35.000Z,133.77
2023-10-21T18:46:21.396Z,136.85
2023-10-21T18:49:08.519Z,138.90
2023-10-21T18:51:54.745Z,136.65
2023-10-21T18:54:42.847Z,154.40
2023-10-21T19:01:09.662Z,154.50
2023-10-21T19:07:02.071Z,150.02
2023-10-21T19:09:47.799Z,142.05
2023-10-21T19:12:34.304Z,160.57
2023-10-21T19:15:20.524Z,173.63
2023-10-21T19:18:09.045Z,154.02
2023-10-21T19:20:55.029Z,147.05
2023-10-21T19:23:41.904Z,154.38
2023-10-21T19:26:28.264Z,201.95
2023-10-21T19:29:14.672Z,174.00
2023-10-21T19:32:01.329Z,149.45
2023-10-21T19:34:47.763Z,139.68
2023-10-21T19:37:34.483Z,138.40
2023-10-21T19:40:22.136Z,131.32
2023-10-21T19:43:08.477Z,119.80
2023-10-21T19:45:54.960Z,117.00
2023-10-21T19:48:40.985Z,106.55
2023-10-21T19:51:27.804Z,109.25
2023-10-21T19:54:13.706Z,107.00
2023-10-21T19:57:00.395Z,101.82
2023-10-21T19:59:46.098Z,100.18
2023-10-21T20:02:32.549Z,97.35
2023-10-21T20:05:18.173Z,107.03
2023-10-21T20:08:05.093Z,106.13
2023-10-21T20:11:05.296Z,94.38
2023-10-21T20:13:58.063Z,112.22
2023-10-21T20:16:49.059Z,107.22
2023-10-21T20:19:35.744Z,123.60
2023-10-21T20:22:21.935Z,117.47
2023-10-21T20:25:09.628Z,125.32
2023-10-21T20:27:55.936Z,100.57
2023-10-21T20:30:46.835Z,101.07
2023-10-21T20:33:34.606Z,98.93
2023-10-21T20:36:22.662Z,99.80
2023-10-21T20:39:09.984Z,94.57
2023-10-21T20:42:00.286Z,92.20
2023-10-21T20:44:49.410Z,104.30
2023-10-21T20:47:35.609Z,108.80
2023-10-21T20:50:21.681Z,98.85
2023-10-21T20:53:08.385Z,136.55
2023-10-21T20:55:54.988Z,99.70
2023-10-21T20:58:41.387Z,104.30
2023-10-21T21:01:36.904Z,108.93
2023-10-21T21:04:25.382Z,123.72
2023-10-21T21:07:10.968Z,182.57
2023-10-21T21:10:02.775Z,187.00
2023-10-21T21:12:51.864Z,201.30
2023-10-21T21:15:38.707Z,161.95
2023-10-21T21:18:25.989Z,147.90
2023-10-21T21:21:13.281Z,128.85
2023-10-21T21:23:59.074Z,154.30
2023-10-21T21:26:47.408Z,132.30
2023-10-21T21:29:33.251Z,167.75
2023-10-21T21:32:19.686Z,175.98
2023-10-21T21:35:05.741Z,149.20
2023-10-21T21:37:52.042Z,164.27
2023-10-21T21:40:38.300Z,124.72
2023-10-21T21:43:24.319Z,156.35
2023-10-21T21:46:23.306Z,145.80
2023-10-21T21:49:09.679Z,143.73
2023-10-21T21:51:55.374Z,160.35
2023-10-21T21:54:43.624Z,140.32
2023-10-21T21:57:29.359Z,134.00
2023-10-21T22:00:30.869Z,137.10
2023-10-21T22:03:16.549Z,119.10
2023-10-21T22:06:03.900Z,104.60
2023-10-21T22:08:49.545Z,94.68
2023-10-21T22:11:35.964Z,120.65
2023-10-21T22:14:23.299Z,136.13
2023-10-21T22:17:09.780Z,133.93
2023-10-21T22:19:56.408Z,134.77
2023-10-21T22:22:42.547Z,127.85
2023-10-21T22:25:29.175Z,110.65
2023-10-21T22:28:16.058Z,133.07
2023-10-21T22:31:05.397Z,122.30
2023-10-21T22:33:51.816Z,108.60
2023-10-21T22:36:37.907Z,82.45
2023-10-21T22:39:24.469Z,92.90
2023-10-21T22:42:10.318Z,97.60
2023-10-21T22:44:57.037Z,103.43
2023-10-21T22:47:44.939Z,115.43
2023-10-21T22:50:31.466Z,131.27
2023-10-21T22:53:19.030Z,119.95
2023-10-21T22:56:06.491Z,114.47
2023-10-21T22:58:52.722Z,143.00
2023-10-21T23:01:40.405Z,127.10
2023-10-21T23:04:26.954Z,124.53
2023-10-21T23:07:13.646Z,114.47
2023-10-21T23:10:00.399Z,108.25
2023-10-21T23:12:52.301Z,101.95
2023-10-21T23:15:45.029Z,88.32
2023-10-21T23:18:31.390Z,76.93
2023-10-21T23:21:17.347Z,79.25
2023-10-21T23:24:03.840Z,79.53
2023-10-21T23:26:49.413Z,77.47
2023-10-21T23:29:35.764Z,80.82
2023-10-21T23:32:21.593Z,76.70
2023-10-21T23:35:09.357Z,98.05
2023-10-21T23:37:56.248Z,125.25
2023-10-21T23:40:43.719Z,135.13
2023-10-21T23:43:29.219Z,102.03
2023-10-21T23:46:15.393Z,88.90
2023-10-21T23:49:01.736Z,193.85
2023-10-21T23:51:48.024Z,81.15
2023-10-21T23:54:35.338Z,87.97
2023-10-21T23:57:21.602Z,202.80
